sensor_id;sensor_type;location;lat;lon;timestamp;temperature;humidity
74968;SHT30;63523;51.880;12.630;2023-03-01T00:01:19;-3.88;85.19
74968;SHT30;63523;51.880;12.630;2023-03-01T00:03:45;-3.89;85.33
74968;SHT30;63523;51.880;12.630;2023-03-01T00:06:11;-3.92;84.99
74968;SHT30;63523;51.880;12.630;2023-03-01T00:08:37;-3.94;84.81
74968;SHT30;63523;51.880;12.630;2023-03-01T00:11:06;-3.96;84.72
74968;SHT30;63523;51.880;12.630;2023-03-01T00:13:32;-3.98;85.18
74968;SHT30;63523;51.880;12.630;2023-03-01T00:15:58;-3.99;85.76
74968;SHT30;63523;51.880;12.630;2023-03-01T00:18:24;-4.01;86.01
74968;SHT30;63523;51.880;12.630;2023-03-01T00:20:52;-4.02;85.78
74968;SHT30;63523;51.880;12.630;2023-03-01T00:23:18;-4.05;85.74
74968;SHT30;63523;51.880;12.630;2023-03-01T00:25:44;-4.05;85.89
74968;SHT30;63523;51.880;12.630;2023-03-01T00:28:09;-4.02;87.18
74968;SHT30;63523;51.880;12.630;2023-03-01T00:30:35;-3.96;87.48
74968;SHT30;63523;51.880;12.630;2023-03-01T00:33:00;-3.95;87.02
74968;SHT30;63523;51.880;12.630;2023-03-01T00:35:26;-3.98;86.47
74968;SHT30;63523;51.880;12.630;2023-03-01T00:37:51;-4.02;85.69
74968;SHT30;63523;51.880;12.630;2023-03-01T00:40:23;-4.05;85.73
74968;SHT30;63523;51.880;12.630;2023-03-01T00:42:49;-4.07;85.12
74968;SHT30;63523;51.880;12.630;2023-03-01T00:45:15;-4.09;85.50
74968;SHT30;63523;51.880;12.630;2023-03-01T00:47:41;-4.12;85.74
74968;SHT30;63523;51.880;12.630;2023-03-01T00:50:07;-4.10;85.82
74968;SHT30;63523;51.880;12.630;2023-03-01T00:52:33;-4.12;85.98
74968;SHT30;63523;51.880;12.630;2023-03-01T00:54:58;-4.13;85.91
74968;SHT30;63523;51.880;12.630;2023-03-01T00:57:24;-4.16;85.89
74968;SHT30;63523;51.880;12.630;2023-03-01T00:59:49;-4.20;86.03
74968;SHT30;63523;51.880;12.630;2023-03-01T01:02:15;-4.22;86.22
74968;SHT30;63523;51.880;12.630;2023-03-01T01:04:40;-4.22;86.19
74968;SHT30;63523;51.880;12.630;2023-03-01T01:07:06;-4.23;85.96
74968;SHT30;63523;51.880;12.630;2023-03-01T01:09:31;-4.27;85.78
74968;SHT30;63523;51.880;12.630;2023-03-01T01:11:57;-4.30;85.91
74968;SHT30;63523;51.880;12.630;2023-03-01T01:14:22;-4.26;86.16
74968;SHT30;63523;51.880;12.630;2023-03-01T01:16:48;-4.24;85.93
74968;SHT30;63523;51.880;12.630;2023-03-01T01:19:14;-4.29;85.24
74968;SHT30;63523;51.880;12.630;2023-03-01T01:21:40;-4.32;85.61
74968;SHT30;63523;51.880;12.630;2023-03-01T01:24:08;-4.36;85.36
74968;SHT30;63523;51.880;12.630;2023-03-01T01:26:34;-4.40;85.24
74968;SHT30;63523;51.880;12.630;2023-03-01T01:29:00;-4.39;86.19
74968;SHT30;63523;51.880;12.630;2023-03-01T01:31:27;-4.40;86.30
74968;SHT30;63523;51.880;12.630;2023-03-01T01:33:54;-4.44;86.14
74968;SHT30;63523;51.880;12.630;2023-03-01T01:36:20;-4.44;86.54
74968;SHT30;63523;51.880;12.630;2023-03-01T01:38:46;-4.43;86.25
74968;SHT30;63523;51.880;12.630;2023-03-01T01:41:13;-4.41;86.41
74968;SHT30;63523;51.880;12.630;2023-03-01T01:43:44;-4.40;86.64
74968;SHT30;63523;51.880;12.630;2023-03-01T01:46:19;-4.43;86.38
74968;SHT30;63523;51.880;12.630;2023-03-01T01:48:52;-4.47;86.44
74968;SHT30;63523;51.880;12.630;2023-03-01T01:51:20;-4.51;86.44
74968;SHT30;63523;51.880;12.630;2023-03-01T01:53:53;-4.51;85.96
74968;SHT30;63523;51.880;12.630;2023-03-01T01:56:19;-4.57;85.92
74968;SHT30;63523;51.880;12.630;2023-03-01T01:58:47;-4.62;85.92
74968;SHT30;63523;51.880;12.630;2023-03-01T02:01:12;-4.67;85.72
74968;SHT30;63523;51.880;12.630;2023-03-01T02:03:39;-4.67;86.49
74968;SHT30;63523;51.880;12.630;2023-03-01T02:06:21;-4.58;87.07
74968;SHT30;63523;51.880;12.630;2023-03-01T02:08:53;-4.56;86.94
74968;SHT30;63523;51.880;12.630;2023-03-01T02:11:19;-4.60;86.19
74968;SHT30;63523;51.880;12.630;2023-03-01T02:13:47;-4.68;85.82
74968;SHT30;63523;51.880;12.630;2023-03-01T02:16:14;-4.72;85.39
74968;SHT30;63523;51.880;12.630;2023-03-01T02:18:41;-4.78;85.56
74968;SHT30;63523;51.880;12.630;2023-03-01T02:27:10;-4.85;86.81
74968;SHT30;63523;51.880;12.630;2023-03-01T02:29:36;-4.85;87.06
74968;SHT30;63523;51.880;12.630;2023-03-01T02:32:03;-4.87;86.99
74968;SHT30;63523;51.880;12.630;2023-03-01T02:34:31;-4.89;87.10
74968;SHT30;63523;51.880;12.630;2023-03-01T02:37:01;-4.87;87.11
74968;SHT30;63523;51.880;12.630;2023-03-01T02:39:48;-4.92;87.05
74968;SHT30;63523;51.880;12.630;2023-03-01T02:42:21;-4.92;87.36
74968;SHT30;63523;51.880;12.630;2023-03-01T02:44:49;-4.92;87.58
74968;SHT30;63523;51.880;12.630;2023-03-01T02:47:15;-4.92;87.58
74968;SHT30;63523;51.880;12.630;2023-03-01T02:49:40;-4.96;86.96
74968;SHT30;63523;51.880;12.630;2023-03-01T02:55:16;-5.00;87.30
74968;SHT30;63523;51.880;12.630;2023-03-01T02:57:44;-5.05;87.29
74968;SHT30;63523;51.880;12.630;2023-03-01T03:00:16;-5.05;87.31
74968;SHT30;63523;51.880;12.630;2023-03-01T03:02:50;-5.05;87.78
74968;SHT30;63523;51.880;12.630;2023-03-01T03:05:19;-5.03;88.22
74968;SHT30;63523;51.880;12.630;2023-03-01T03:07:46;-4.99;88.41
74968;SHT30;63523;51.880;12.630;2023-03-01T03:10:15;-4.98;88.43
74968;SHT30;63523;51.880;12.630;2023-03-01T03:12:41;-4.95;88.45
74968;SHT30;63523;51.880;12.630;2023-03-01T03:15:09;-4.95;88.55
74968;SHT30;63523;51.880;12.630;2023-03-01T03:17:40;-4.95;88.38
74968;SHT30;63523;51.880;12.630;2023-03-01T03:20:09;-4.98;88.11
74968;SHT30;63523;51.880;12.630;2023-03-01T03:22:38;-4.98;88.17
74968;SHT30;63523;51.880;12.630;2023-03-01T03:25:05;-4.99;88.03
74968;SHT30;63523;51.880;12.630;2023-03-01T03:27:36;-5.03;87.56
74968;SHT30;63523;51.880;12.630;2023-03-01T03:30:04;-5.07;87.12
74968;SHT30;63523;51.880;12.630;2023-03-01T03:32:40;-5.12;87.07
74968;SHT30;63523;51.880;12.630;2023-03-01T03:35:08;-5.16;87.47
74968;SHT30;63523;51.880;12.630;2023-03-01T03:37:38;-5.15;87.93
74968;SHT30;63523;51.880;12.630;2023-03-01T03:40:22;-5.17;87.48
74968;SHT30;63523;51.880;12.630;2023-03-01T03:42:50;-5.22;87.55
74968;SHT30;63523;51.880;12.630;2023-03-01T03:45:16;-5.20;87.51
74968;SHT30;63523;51.880;12.630;2023-03-01T03:47:42;-5.24;87.40
74968;SHT30;63523;51.880;12.630;2023-03-01T03:50:13;-5.26;87.37
74968;SHT30;63523;51.880;12.630;2023-03-01T03:52:38;-5.30;86.99
74968;SHT30;63523;51.880;12.630;2023-03-01T03:55:06;-5.34;87.14
74968;SHT30;63523;51.880;12.630;2023-03-01T03:57:39;-5.37;87.04
74968;SHT30;63523;51.880;12.630;2023-03-01T04:00:07;-5.41;86.74
74968;SHT30;63523;51.880;12.630;2023-03-01T04:02:44;-5.44;86.79
74968;SHT30;63523;51.880;12.630;2023-03-01T04:05:12;-5.47;86.71
74968;SHT30;63523;51.880;12.630;2023-03-01T04:07:38;-5.50;86.75
74968;SHT30;63523;51.880;12.630;2023-03-01T04:10:05;-5.52;86.96
74968;SHT30;63523;51.880;12.630;2023-03-01T04:12:32;-5.54;86.69
74968;SHT30;63523;51.880;12.630;2023-03-01T04:15:00;-5.60;86.68
74968;SHT30;63523;51.880;12.630;2023-03-01T04:17:25;-5.60;87.00
74968;SHT30;63523;51.880;12.630;2023-03-01T04:19:51;-5.62;87.39
74968;SHT30;63523;51.880;12.630;2023-03-01T04:22:17;-5.60;87.83
74968;SHT30;63523;51.880;12.630;2023-03-01T04:24:44;-5.57;87.98
74968;SHT30;63523;51.880;12.630;2023-03-01T04:27:10;-5.52;88.15
74968;SHT30;63523;51.880;12.630;2023-03-01T04:29:36;-5.51;88.42
74968;SHT30;63523;51.880;12.630;2023-03-01T04:32:02;-5.48;88.48
74968;SHT30;63523;51.880;12.630;2023-03-01T04:34:28;-5.47;88.51
74968;SHT30;63523;51.880;12.630;2023-03-01T04:36:54;-5.43;88.36
74968;SHT30;63523;51.880;12.630;2023-03-01T04:39:19;-5.41;88.39
74968;SHT30;63523;51.880;12.630;2023-03-01T04:41:45;-5.41;88.47
74968;SHT30;63523;51.880;12.630;2023-03-01T04:44:11;-5.46;88.15
74968;SHT30;63523;51.880;12.630;2023-03-01T04:46:36;-5.47;87.80
74968;SHT30;63523;51.880;12.630;2023-03-01T04:49:03;-5.48;87.93
74968;SHT30;63523;51.880;12.630;2023-03-01T04:51:28;-5.51;87.84
74968;SHT30;63523;51.880;12.630;2023-03-01T04:53:54;-5.55;87.94
74968;SHT30;63523;51.880;12.630;2023-03-01T04:56:19;-5.55;88.01
74968;SHT30;63523;51.880;12.630;2023-03-01T04:58:48;-5.58;88.20
74968;SHT30;63523;51.880;12.630;2023-03-01T05:01:17;-5.57;88.58
74968;SHT30;63523;51.880;12.630;2023-03-01T05:03:45;-5.60;88.33
74968;SHT30;63523;51.880;12.630;2023-03-01T05:06:11;-5.61;88.58
74968;SHT30;63523;51.880;12.630;2023-03-01T05:08:41;-5.57;88.93
74968;SHT30;63523;51.880;12.630;2023-03-01T05:11:07;-5.57;88.70
74968;SHT30;63523;51.880;12.630;2023-03-01T05:13:35;-5.57;88.50
74968;SHT30;63523;51.880;12.630;2023-03-01T05:16:01;-5.54;88.45
74968;SHT30;63523;51.880;12.630;2023-03-01T05:18:30;-5.58;88.18
74968;SHT30;63523;51.880;12.630;2023-03-01T05:21:05;-5.51;88.52
74968;SHT30;63523;51.880;12.630;2023-03-01T05:23:32;-5.51;88.71
74968;SHT30;63523;51.880;12.630;2023-03-01T05:25:59;-5.48;87.77
74968;SHT30;63523;51.880;12.630;2023-03-01T05:28:25;-5.51;87.34
74968;SHT30;63523;51.880;12.630;2023-03-01T05:30:51;-5.55;87.28
74968;SHT30;63523;51.880;12.630;2023-03-01T05:33:17;-5.60;87.29
74968;SHT30;63523;51.880;12.630;2023-03-01T05:35:44;-5.61;87.15
74968;SHT30;63523;51.880;12.630;2023-03-01T05:38:12;-5.58;86.78
74968;SHT30;63523;51.880;12.630;2023-03-01T05:40:45;-5.62;86.68
74968;SHT30;63523;51.880;12.630;2023-03-01T05:43:13;-5.64;87.53
74968;SHT30;63523;51.880;12.630;2023-03-01T05:45:40;-5.60;88.55
74968;SHT30;63523;51.880;12.630;2023-03-01T05:48:06;-5.54;88.89
74968;SHT30;63523;51.880;12.630;2023-03-01T05:50:51;-5.51;88.36
74968;SHT30;63523;51.880;12.630;2023-03-01T05:53:19;-5.50;87.69
74968;SHT30;63523;51.880;12.630;2023-03-01T05:55:46;-5.58;87.03
74968;SHT30;63523;51.880;12.630;2023-03-01T05:58:18;-5.54;87.11
74968;SHT30;63523;51.880;12.630;2023-03-01T06:00:45;-5.51;87.16
74968;SHT30;63523;51.880;12.630;2023-03-01T06:03:13;-5.54;86.90
74968;SHT30;63523;51.880;12.630;2023-03-01T06:05:40;-5.52;87.12
74968;SHT30;63523;51.880;12.630;2023-03-01T06:08:06;-5.46;87.32
74968;SHT30;63523;51.880;12.630;2023-03-01T06:10:32;-5.43;87.70
74968;SHT30;63523;51.880;12.630;2023-03-01T06:12:58;-5.40;87.29
74968;SHT30;63523;51.880;12.630;2023-03-01T06:15:24;-5.33;87.22
74968;SHT30;63523;51.880;12.630;2023-03-01T06:17:50;-5.07;86.92
74968;SHT30;63523;51.880;12.630;2023-03-01T06:20:18;-4.96;86.82
74968;SHT30;63523;51.880;12.630;2023-03-01T06:22:45;-4.82;86.13
74968;SHT30;63523;51.880;12.630;2023-03-01T06:25:13;-4.71;85.71
74968;SHT30;63523;51.880;12.630;2023-03-01T06:27:38;-4.56;85.34
74968;SHT30;63523;51.880;12.630;2023-03-01T06:30:05;-4.29;84.30
74968;SHT30;63523;51.880;12.630;2023-03-01T06:32:32;-4.16;83.59
74968;SHT30;63523;51.880;12.630;2023-03-01T06:34:57;-4.05;83.54
74968;SHT30;63523;51.880;12.630;2023-03-01T06:37:26;-3.91;83.97
74968;SHT30;63523;51.880;12.630;2023-03-01T06:39:57;-3.81;84.14
74968;SHT30;63523;51.880;12.630;2023-03-01T06:42:22;-3.70;82.86
74968;SHT30;63523;51.880;12.630;2023-03-01T06:44:48;-3.66;81.64
74968;SHT30;63523;51.880;12.630;2023-03-01T06:47:17;-3.53;81.37
74968;SHT30;63523;51.880;12.630;2023-03-01T06:49:42;-3.44;81.86
74968;SHT30;63523;51.880;12.630;2023-03-01T06:52:11;-3.38;81.29
74968;SHT30;63523;51.880;12.630;2023-03-01T06:54:36;-3.38;80.84
74968;SHT30;63523;51.880;12.630;2023-03-01T06:57:02;-3.31;82.19
74968;SHT30;63523;51.880;12.630;2023-03-01T06:59:27;-3.17;82.04
74968;SHT30;63523;51.880;12.630;2023-03-01T07:01:53;-3.04;81.70
74968;SHT30;63523;51.880;12.630;2023-03-01T07:04:18;-2.94;81.49
74968;SHT30;63523;51.880;12.630;2023-03-01T07:06:44;-2.85;81.37
74968;SHT30;63523;51.880;12.630;2023-03-01T07:09:09;-2.74;81.73
74968;SHT30;63523;51.880;12.630;2023-03-01T07:11:35;-2.63;81.41
74968;SHT30;63523;51.880;12.630;2023-03-01T07:14:00;-2.56;81.65
74968;SHT30;63523;51.880;12.630;2023-03-01T07:16:26;-2.45;81.97
74968;SHT30;63523;51.880;12.630;2023-03-01T07:18:51;-2.31;82.14
74968;SHT30;63523;51.880;12.630;2023-03-01T07:21:16;-2.19;81.67
74968;SHT30;63523;51.880;12.630;2023-03-01T07:23:42;-2.09;81.15
74968;SHT30;63523;51.880;12.630;2023-03-01T07:26:08;-1.98;81.04
74968;SHT30;63523;51.880;12.630;2023-03-01T07:28:33;-1.91;80.30
74968;SHT30;63523;51.880;12.630;2023-03-01T07:31:05;-1.76;80.34
74968;SHT30;63523;51.880;12.630;2023-03-01T07:33:30;-1.66;80.42
74968;SHT30;63523;51.880;12.630;2023-03-01T07:36:00;-1.60;80.50
74968;SHT30;63523;51.880;12.630;2023-03-01T07:38:27;-1.50;80.18
74968;SHT30;63523;51.880;12.630;2023-03-01T07:40:52;-1.40;79.42
74968;SHT30;63523;51.880;12.630;2023-03-01T07:43:21;-1.35;79.51
74968;SHT30;63523;51.880;12.630;2023-03-01T07:45:47;-1.14;79.39
74968;SHT30;63523;51.880;12.630;2023-03-01T07:48:12;-1.00;79.84
74968;SHT30;63523;51.880;12.630;2023-03-01T07:50:38;-0.74;79.16
74968;SHT30;63523;51.880;12.630;2023-03-01T07:53:03;-0.59;77.67
74968;SHT30;63523;51.880;12.630;2023-03-01T07:55:29;-0.48;75.23
74968;SHT30;63523;51.880;12.630;2023-03-01T07:57:55;-0.31;74.79
74968;SHT30;63523;51.880;12.630;2023-03-01T08:00:21;-0.31;75.25
74968;SHT30;63523;51.880;12.630;2023-03-01T08:02:46;-0.25;76.80
74968;SHT30;63523;51.880;12.630;2023-03-01T08:05:12;-0.14;75.56
74968;SHT30;63523;51.880;12.630;2023-03-01T08:07:37;0.09;74.93
74968;SHT30;63523;51.880;12.630;2023-03-01T08:10:03;0.31;74.99
74968;SHT30;63523;51.880;12.630;2023-03-01T08:12:29;0.41;75.82
74968;SHT30;63523;51.880;12.630;2023-03-01T08:14:55;0.54;76.30
74968;SHT30;63523;51.880;12.630;2023-03-01T08:17:22;0.76;74.63
74968;SHT30;63523;51.880;12.630;2023-03-01T08:19:48;0.95;74.21
74968;SHT30;63523;51.880;12.630;2023-03-01T08:22:13;1.10;72.26
74968;SHT30;63523;51.880;12.630;2023-03-01T08:24:39;1.35;71.33
74968;SHT30;63523;51.880;12.630;2023-03-01T08:27:04;1.65;70.22
74968;SHT30;63523;51.880;12.630;2023-03-01T08:29:33;1.65;70.25
74968;SHT30;63523;51.880;12.630;2023-03-01T08:31:59;1.83;70.37
74968;SHT30;63523;51.880;12.630;2023-03-01T08:34:24;1.96;68.67
74968;SHT30;63523;51.880;12.630;2023-03-01T08:36:50;2.14;67.81
74968;SHT30;63523;51.880;12.630;2023-03-01T08:39:19;2.21;67.46
74968;SHT30;63523;51.880;12.630;2023-03-01T08:41:46;2.41;68.85
74968;SHT30;63523;51.880;12.630;2023-03-01T08:44:13;2.63;67.44
74968;SHT30;63523;51.880;12.630;2023-03-01T08:46:40;2.85;65.38
74968;SHT30;63523;51.880;12.630;2023-03-01T08:49:15;3.03;64.04
74968;SHT30;63523;51.880;12.630;2023-03-01T08:51:41;3.31;63.60
74968;SHT30;63523;51.880;12.630;2023-03-01T08:54:10;3.50;64.14
74968;SHT30;63523;51.880;12.630;2023-03-01T08:56:36;3.68;63.73
74968;SHT30;63523;51.880;12.630;2023-03-01T08:59:02;4.06;61.11
74968;SHT30;63523;51.880;12.630;2023-03-01T09:01:28;4.21;61.07
74968;SHT30;63523;51.880;12.630;2023-03-01T09:03:53;4.30;60.60
74968;SHT30;63523;51.880;12.630;2023-03-01T09:06:19;4.45;60.48
74968;SHT30;63523;51.880;12.630;2023-03-01T09:08:46;4.63;57.47
74968;SHT30;63523;51.880;12.630;2023-03-01T09:11:15;4.76;56.69
74968;SHT30;63523;51.880;12.630;2023-03-01T09:13:42;4.80;56.09
74968;SHT30;63523;51.880;12.630;2023-03-01T09:16:08;4.96;56.58
74968;SHT30;63523;51.880;12.630;2023-03-01T09:18:35;4.91;56.70
74968;SHT30;63523;51.880;12.630;2023-03-01T09:21:21;5.06;55.09
74968;SHT30;63523;51.880;12.630;2023-03-01T09:23:48;5.18;54.51
74968;SHT30;63523;51.880;12.630;2023-03-01T09:26:17;5.32;53.70
74968;SHT30;63523;51.880;12.630;2023-03-01T09:28:45;5.34;53.39
74968;SHT30;63523;51.880;12.630;2023-03-01T09:31:11;5.42;52.03
74968;SHT30;63523;51.880;12.630;2023-03-01T09:33:41;5.32;51.78
74968;SHT30;63523;51.880;12.630;2023-03-01T09:36:11;5.36;51.64
74968;SHT30;63523;51.880;12.630;2023-03-01T09:38:36;5.42;51.36
74968;SHT30;63523;51.880;12.630;2023-03-01T09:41:02;5.71;51.65
74968;SHT30;63523;51.880;12.630;2023-03-01T09:43:46;5.74;50.18
74968;SHT30;63523;51.880;12.630;2023-03-01T09:46:14;5.71;52.47
74968;SHT30;63523;51.880;12.630;2023-03-01T09:49:05;5.71;51.61
74968;SHT30;63523;51.880;12.630;2023-03-01T09:51:34;5.96;52.33
74968;SHT30;63523;51.880;12.630;2023-03-01T09:54:05;5.93;52.13
74968;SHT30;63523;51.880;12.630;2023-03-01T09:56:39;5.87;50.64
74968;SHT30;63523;51.880;12.630;2023-03-01T10:05:31;6.06;51.81
74968;SHT30;63523;51.880;12.630;2023-03-01T10:10:39;6.04;50.70
74968;SHT30;63523;51.880;12.630;2023-03-01T10:13:27;6.22;49.80
74968;SHT30;63523;51.880;12.630;2023-03-01T10:16:12;6.34;50.59
74968;SHT30;63523;51.880;12.630;2023-03-01T10:18:39;6.25;47.51
74968;SHT30;63523;51.880;12.630;2023-03-01T10:21:17;6.26;47.39
74968;SHT30;63523;51.880;12.630;2023-03-01T10:23:44;6.35;48.32
74968;SHT30;63523;51.880;12.630;2023-03-01T10:29:10;6.32;46.44
74968;SHT30;63523;51.880;12.630;2023-03-01T10:31:54;6.65;47.42
74968;SHT30;63523;51.880;12.630;2023-03-01T10:34:31;6.49;47.12
74968;SHT30;63523;51.880;12.630;2023-03-01T10:37:04;6.75;49.08
74968;SHT30;63523;51.880;12.630;2023-03-01T10:39:34;6.65;46.68
74968;SHT30;63523;51.880;12.630;2023-03-01T10:42:05;6.88;46.27
74968;SHT30;63523;51.880;12.630;2023-03-01T10:44:46;6.80;48.72
74968;SHT30;63523;51.880;12.630;2023-03-01T10:49:39;6.91;46.75
74968;SHT30;63523;51.880;12.630;2023-03-01T10:52:22;7.12;46.11
74968;SHT30;63523;51.880;12.630;2023-03-01T10:55:28;7.24;45.05
74968;SHT30;63523;51.880;12.630;2023-03-01T10:58:19;7.38;46.46
74968;SHT30;63523;51.880;12.630;2023-03-01T11:03:36;7.62;43.33
74968;SHT30;63523;51.880;12.630;2023-03-01T11:08:38;7.86;42.94
74968;SHT30;63523;51.880;12.630;2023-03-01T11:11:32;7.93;42.75
74968;SHT30;63523;51.880;12.630;2023-03-01T11:14:06;7.86;45.98
74968;SHT30;63523;51.880;12.630;2023-03-01T11:16:41;7.87;42.01
74968;SHT30;63523;51.880;12.630;2023-03-01T11:24:17;7.98;41.38
74968;SHT30;63523;51.880;12.630;2023-03-01T11:26:51;7.83;42.76
74968;SHT30;63523;51.880;12.630;2023-03-01T11:29:27;7.80;43.06
74968;SHT30;63523;51.880;12.630;2023-03-01T11:31:58;7.70;42.81
74968;SHT30;63523;51.880;12.630;2023-03-01T11:37:46;6.97;44.02
74968;SHT30;63523;51.880;12.630;2023-03-01T11:40:12;6.77;44.09
74968;SHT30;63523;51.880;12.630;2023-03-01T11:45:23;6.76;44.15
74968;SHT30;63523;51.880;12.630;2023-03-01T11:50:48;6.68;44.11
74968;SHT30;63523;51.880;12.630;2023-03-01T12:01:45;6.52;46.95
74968;SHT30;63523;51.880;12.630;2023-03-01T12:07:17;6.69;44.60
74968;SHT30;63523;51.880;12.630;2023-03-01T12:15:54;6.93;44.08
74968;SHT30;63523;51.880;12.630;2023-03-01T12:26:35;6.84;42.66
74968;SHT30;63523;51.880;12.630;2023-03-01T12:32:15;6.75;43.75
74968;SHT30;63523;51.880;12.630;2023-03-01T12:46:28;7.09;41.98
74968;SHT30;63523;51.880;12.630;2023-03-01T12:51:35;7.28;40.78
74968;SHT30;63523;51.880;12.630;2023-03-01T12:54:22;7.25;39.10
74968;SHT30;63523;51.880;12.630;2023-03-01T12:56:51;7.21;41.47
74968;SHT30;63523;51.880;12.630;2023-03-01T12:59:28;7.34;41.61
74968;SHT30;63523;51.880;12.630;2023-03-01T13:04:55;7.12;41.84
74968;SHT30;63523;51.880;12.630;2023-03-01T13:10:02;7.42;37.55
74968;SHT30;63523;51.880;12.630;2023-03-01T13:17:54;7.35;40.90
74968;SHT30;63523;51.880;12.630;2023-03-01T13:20:25;7.48;39.68
74968;SHT30;63523;51.880;12.630;2023-03-01T13:23:06;7.46;39.52
74968;SHT30;63523;51.880;12.630;2023-03-01T13:25:32;7.35;40.83
74968;SHT30;63523;51.880;12.630;2023-03-01T13:28:38;7.29;44.91
74968;SHT30;63523;51.880;12.630;2023-03-01T13:31:08;7.55;41.62
74968;SHT30;63523;51.880;12.630;2023-03-01T13:33:54;7.69;41.93
74968;SHT30;63523;51.880;12.630;2023-03-01T13:39:04;7.66;39.06
74968;SHT30;63523;51.880;12.630;2023-03-01T13:49:40;7.71;40.85
74968;SHT30;63523;51.880;12.630;2023-03-01T13:52:32;7.71;40.05
74968;SHT30;63523;51.880;12.630;2023-03-01T13:55:00;7.67;41.17
74968;SHT30;63523;51.880;12.630;2023-03-01T13:57:34;7.69;42.03
74968;SHT30;63523;51.880;12.630;2023-03-01T14:00:00;7.84;40.52
74968;SHT30;63523;51.880;12.630;2023-03-01T14:02:25;7.77;38.77
74968;SHT30;63523;51.880;12.630;2023-03-01T14:04:59;7.58;39.30
74968;SHT30;63523;51.880;12.630;2023-03-01T14:07:26;7.58;39.99
74968;SHT30;63523;51.880;12.630;2023-03-01T14:09:58;7.52;41.01
74968;SHT30;63523;51.880;12.630;2023-03-01T14:18:28;7.60;41.55
74968;SHT30;63523;51.880;12.630;2023-03-01T14:20:45;7.79;41.52
74968;SHT30;63523;51.880;12.630;2023-03-01T14:23:20;7.83;42.02
74968;SHT30;63523;51.880;12.630;2023-03-01T14:25:49;7.59;39.76
74968;SHT30;63523;51.880;12.630;2023-03-01T14:28:26;7.49;41.41
74968;SHT30;63523;51.880;12.630;2023-03-01T14:30:54;7.55;42.44
74968;SHT30;63523;51.880;12.630;2023-03-01T14:33:25;7.51;40.37
74968;SHT30;63523;51.880;12.630;2023-03-01T14:36:11;7.51;39.24
74968;SHT30;63523;51.880;12.630;2023-03-01T14:38:42;7.49;39.00
74968;SHT30;63523;51.880;12.630;2023-03-01T14:43:35;7.60;40.95
74968;SHT30;63523;51.880;12.630;2023-03-01T14:46:02;7.56;39.63
74968;SHT30;63523;51.880;12.630;2023-03-01T14:48:28;7.46;39.99
74968;SHT30;63523;51.880;12.630;2023-03-01T14:50:54;7.69;38.22
74968;SHT30;63523;51.880;12.630;2023-03-01T14:53:25;7.63;40.39
74968;SHT30;63523;51.880;12.630;2023-03-01T14:55:54;7.74;38.24
74968;SHT30;63523;51.880;12.630;2023-03-01T14:58:23;7.76;40.44
74968;SHT30;63523;51.880;12.630;2023-03-01T15:00:52;7.71;41.07
74968;SHT30;63523;51.880;12.630;2023-03-01T15:03:33;7.73;40.84
74968;SHT30;63523;51.880;12.630;2023-03-01T15:06:04;7.56;41.22
74968;SHT30;63523;51.880;12.630;2023-03-01T15:08:31;7.66;38.28
74968;SHT30;63523;51.880;12.630;2023-03-01T15:11:44;7.73;40.49
74968;SHT30;63523;51.880;12.630;2023-03-01T15:13:52;7.59;38.46
74968;SHT30;63523;51.880;12.630;2023-03-01T15:16:24;7.58;39.77
74968;SHT30;63523;51.880;12.630;2023-03-01T15:19:03;7.42;38.81
74968;SHT30;63523;51.880;12.630;2023-03-01T15:21:37;7.26;41.31
74968;SHT30;63523;51.880;12.630;2023-03-01T15:24:15;7.29;39.75
74968;SHT30;63523;51.880;12.630;2023-03-01T15:26:57;7.24;41.27
74968;SHT30;63523;51.880;12.630;2023-03-01T15:29:29;7.32;41.67
74968;SHT30;63523;51.880;12.630;2023-03-01T15:32:06;7.52;39.79
74968;SHT30;63523;51.880;12.630;2023-03-01T15:34:38;7.34;40.57
74968;SHT30;63523;51.880;12.630;2023-03-01T15:37:06;7.24;39.28
74968;SHT30;63523;51.880;12.630;2023-03-01T15:45:09;7.12;41.46
74968;SHT30;63523;51.880;12.630;2023-03-01T15:47:35;7.01;42.14
74968;SHT30;63523;51.880;12.630;2023-03-01T15:50:04;7.01;42.81
74968;SHT30;63523;51.880;12.630;2023-03-01T15:52:41;6.86;44.55
74968;SHT30;63523;51.880;12.630;2023-03-01T15:55:27;6.77;45.04
74968;SHT30;63523;51.880;12.630;2023-03-01T15:58:04;6.54;46.08
74968;SHT30;63523;51.880;12.630;2023-03-01T16:00:32;6.54;47.08
74968;SHT30;63523;51.880;12.630;2023-03-01T16:02:58;6.42;46.73
74968;SHT30;63523;51.880;12.630;2023-03-01T16:05:29;6.31;46.46
74968;SHT30;63523;51.880;12.630;2023-03-01T16:07:58;6.32;48.44
74968;SHT30;63523;51.880;12.630;2023-03-01T16:10:24;6.34;48.39
74968;SHT30;63523;51.880;12.630;2023-03-01T16:12:51;6.25;48.12
74968;SHT30;63523;51.880;12.630;2023-03-01T16:17:46;5.97;45.38
74968;SHT30;63523;51.880;12.630;2023-03-01T16:20:12;5.96;46.61
74968;SHT30;63523;51.880;12.630;2023-03-01T16:22:43;5.90;46.95
74968;SHT30;63523;51.880;12.630;2023-03-01T16:25:14;5.76;45.09
74968;SHT30;63523;51.880;12.630;2023-03-01T16:27:48;5.65;47.19
74968;SHT30;63523;51.880;12.630;2023-03-01T16:30:15;5.53;48.39
74968;SHT30;63523;51.880;12.630;2023-03-01T16:32:43;5.49;45.82
74968;SHT30;63523;51.880;12.630;2023-03-01T16:35:11;5.35;48.44
74968;SHT30;63523;51.880;12.630;2023-03-01T16:37:39;5.28;48.59
74968;SHT30;63523;51.880;12.630;2023-03-01T16:40:06;5.20;47.41
74968;SHT30;63523;51.880;12.630;2023-03-01T16:42:36;5.10;48.64
74968;SHT30;63523;51.880;12.630;2023-03-01T16:45:03;4.96;48.48
74968;SHT30;63523;51.880;12.630;2023-03-01T16:47:29;4.84;48.23
74968;SHT30;63523;51.880;12.630;2023-03-01T16:49:54;4.77;49.22
74968;SHT30;63523;51.880;12.630;2023-03-01T16:52:21;4.65;51.39
74968;SHT30;63523;51.880;12.630;2023-03-01T16:54:46;4.37;51.80
74968;SHT30;63523;51.880;12.630;2023-03-01T16:57:12;4.04;54.28
74968;SHT30;63523;51.880;12.630;2023-03-01T16:59:38;3.72;56.38
74968;SHT30;63523;51.880;12.630;2023-03-01T17:02:10;3.34;58.21
74968;SHT30;63523;51.880;12.630;2023-03-01T17:04:36;3.07;59.25
74968;SHT30;63523;51.880;12.630;2023-03-01T17:07:02;2.80;61.27
74968;SHT30;63523;51.880;12.630;2023-03-01T17:09:28;2.52;62.00
74968;SHT30;63523;51.880;12.630;2023-03-01T17:11:53;2.27;62.27
74968;SHT30;63523;51.880;12.630;2023-03-01T17:14:19;2.02;63.03
74968;SHT30;63523;51.880;12.630;2023-03-01T17:16:45;1.86;63.78
74968;SHT30;63523;51.880;12.630;2023-03-01T17:19:10;1.65;64.84
74968;SHT30;63523;51.880;12.630;2023-03-01T17:21:37;1.45;65.35
74968;SHT30;63523;51.880;12.630;2023-03-01T17:24:03;1.27;66.22
74968;SHT30;63523;51.880;12.630;2023-03-01T17:26:29;1.13;67.07
74968;SHT30;63523;51.880;12.630;2023-03-01T17:28:55;0.99;67.40
74968;SHT30;63523;51.880;12.630;2023-03-01T17:31:22;0.86;67.59
74968;SHT30;63523;51.880;12.630;2023-03-01T17:33:48;0.78;68.05
74968;SHT30;63523;51.880;12.630;2023-03-01T17:36:15;0.68;68.62
74968;SHT30;63523;51.880;12.630;2023-03-01T17:38:40;0.57;69.57